sensor_id;sensor_type;location;lat;lon;timestamp;temperature;humidity
27797;DHT22;15177;50.844;4.412;2022-11-15T00:00:24;12.90;99.90
27797;DHT22;15177;50.844;4.412;2022-11-15T00:02:51;13.00;99.90
27797;DHT22;15177;50.844;4.412;2022-11-15T00:05:17;12.90;99.90
27797;DHT22;15177;50.844;4.412;2022-11-15T00:07:42;13.00;99.90
27797;DHT22;15177;50.844;4.412;2022-11-15T00:10:08;13.00;99.90
27797;DHT22;15177;50.844;4.412;2022-11-15T00:12:34;13.00;99.90
27797;DHT22;15177;50.844;4.412;2022-11-15T00:14:59;13.10;99.90
27797;DHT22;15177;50.844;4.412;2022-11-15T00:17:25;13.10;99.90
27797;DHT22;15177;50.844;4.412;2022-11-15T00:19:51;13.20;99.90
27797;DHT22;15177;50.844;4.412;2022-11-15T00:22:16;13.10;99.90
27797;DHT22;15177;50.844;4.412;2022-11-15T00:24:42;13.10;99.90
27797;DHT22;15177;50.844;4.412;2022-11-15T00:27:08;13.00;99.90
27797;DHT22;15177;50.844;4.412;2022-11-15T00:29:34;13.00;99.90
27797;DHT22;15177;50.844;4.412;2022-11-15T00:31:59;13.10;99.90
27797;DHT22;15177;50.844;4.412;2022-11-15T00:34:25;13.00;99.90
27797;DHT22;15177;50.844;4.412;2022-11-15T00:36:50;13.00;99.90
27797;DHT22;15177;50.844;4.412;2022-11-15T00:39:16;13.10;99.90
27797;DHT22;15177;50.844;4.412;2022-11-15T00:41:42;13.10;99.90
27797;DHT22;15177;50.844;4.412;2022-11-15T00:44:07;13.10;99.90
27797;DHT22;15177;50.844;4.412;2022-11-15T00:46:33;13.20;99.90
27797;DHT22;15177;50.844;4.412;2022-11-15T00:48:59;13.10;99.90
27797;DHT22;15177;50.844;4.412;2022-11-15T00:51:24;13.10;99.90
27797;DHT22;15177;50.844;4.412;2022-11-15T00:53:50;13.10;99.90
27797;DHT22;15177;50.844;4.412;2022-11-15T00:56:15;13.10;99.90
27797;DHT22;15177;50.844;4.412;2022-11-15T00:58:41;13.10;99.90
27797;DHT22;15177;50.844;4.412;2022-11-15T01:01:09;13.10;99.90
27797;DHT22;15177;50.844;4.412;2022-11-15T01:03:36;13.10;99.90
27797;DHT22;15177;50.844;4.412;2022-11-15T01:06:02;13.20;99.90
27797;DHT22;15177;50.844;4.412;2022-11-15T01:08:28;13.20;99.90
27797;DHT22;15177;50.844;4.412;2022-11-15T01:10:54;13.30;99.90
27797;DHT22;15177;50.844;4.412;2022-11-15T01:13:19;13.30;99.90
27797;DHT22;15177;50.844;4.412;2022-11-15T01:15:45;13.20;99.90
27797;DHT22;15177;50.844;4.412;2022-11-15T01:18:12;13.30;99.90
27797;DHT22;15177;50.844;4.412;2022-11-15T01:20:41;13.20;99.90
27797;DHT22;15177;50.844;4.412;2022-11-15T01:23:09;13.20;99.90
27797;DHT22;15177;50.844;4.412;2022-11-15T01:25:36;13.30;99.90
27797;DHT22;15177;50.844;4.412;2022-11-15T01:28:03;13.30;99.90
27797;DHT22;15177;50.844;4.412;2022-11-15T01:30:29;13.40;99.90
27797;DHT22;15177;50.844;4.412;2022-11-15T01:32:55;13.30;99.90
27797;DHT22;15177;50.844;4.412;2022-11-15T01:35:20;13.30;99.90
27797;DHT22;15177;50.844;4.412;2022-11-15T01:37:46;13.10;99.90
27797;DHT22;15177;50.844;4.412;2022-11-15T01:40:12;13.10;99.90
27797;DHT22;15177;50.844;4.412;2022-11-15T01:42:38;13.20;99.90
27797;DHT22;15177;50.844;4.412;2022-11-15T01:45:04;13.20;99.90
27797;DHT22;15177;50.844;4.412;2022-11-15T01:47:35;13.10;99.90
27797;DHT22;15177;50.844;4.412;2022-11-15T01:50:06;13.20;99.90
27797;DHT22;15177;50.844;4.412;2022-11-15T01:52:34;13.20;99.90
27797;DHT22;15177;50.844;4.412;2022-11-15T01:55:17;13.10;99.90
27797;DHT22;15177;50.844;4.412;2022-11-15T01:57:45;13.00;99.90
27797;DHT22;15177;50.844;4.412;2022-11-15T02:00:12;13.10;99.90
27797;DHT22;15177;50.844;4.412;2022-11-15T02:02:40;13.20;99.90
27797;DHT22;15177;50.844;4.412;2022-11-15T02:05:06;13.20;99.90
27797;DHT22;15177;50.844;4.412;2022-11-15T02:07:34;13.20;99.90
27797;DHT22;15177;50.844;4.412;2022-11-15T02:10:12;13.20;99.90
27797;DHT22;15177;50.844;4.412;2022-11-15T02:12:39;13.10;99.90
27797;DHT22;15177;50.844;4.412;2022-11-15T02:15:07;13.20;99.90
27797;DHT22;15177;50.844;4.412;2022-11-15T02:17:44;13.20;99.90
27797;DHT22;15177;50.844;4.412;2022-11-15T02:23:26;13.10;99.90
27797;DHT22;15177;50.844;4.412;2022-11-15T02:31:51;13.10;99.90
27797;DHT22;15177;50.844;4.412;2022-11-15T02:34:47;13.00;99.90
27797;DHT22;15177;50.844;4.412;2022-11-15T02:37:21;13.00;99.90
27797;DHT22;15177;50.844;4.412;2022-11-15T02:40:13;13.10;99.90
27797;DHT22;15177;50.844;4.412;2022-11-15T02:42:45;13.00;99.90
27797;DHT22;15177;50.844;4.412;2022-11-15T02:45:35;13.10;99.90
27797;DHT22;15177;50.844;4.412;2022-11-15T02:48:03;13.10;99.90
27797;DHT22;15177;50.844;4.412;2022-11-15T02:50:32;13.10;99.90
27797;DHT22;15177;50.844;4.412;2022-11-15T02:52:58;13.00;99.90
27797;DHT22;15177;50.844;4.412;2022-11-15T02:55:27;13.10;99.90
27797;DHT22;15177;50.844;4.412;2022-11-15T03:11:50;13.10;99.90
27797;DHT22;15177;50.844;4.412;2022-11-15T03:19:47;13.10;99.90
27797;DHT22;15177;50.844;4.412;2022-11-15T03:22:19;13.10;99.90
27797;DHT22;15177;50.844;4.412;2022-11-15T03:24:47;13.10;99.90
27797;DHT22;15177;50.844;4.412;2022-11-15T03:27:19;13.10;99.90
27797;DHT22;15177;50.844;4.412;2022-11-15T03:29:53;13.10;99.90
27797;DHT22;15177;50.844;4.412;2022-11-15T03:32:24;13.10;99.90
27797;DHT22;15177;50.844;4.412;2022-11-15T03:38:16;13.10;99.90
27797;DHT22;15177;50.844;4.412;2022-11-15T03:40:47;13.00;99.90
27797;DHT22;15177;50.844;4.412;2022-11-15T03:46:23;13.00;99.90
27797;DHT22;15177;50.844;4.412;2022-11-15T03:48:54;13.10;99.90
27797;DHT22;15177;50.844;4.412;2022-11-15T03:51:23;13.10;99.90
27797;DHT22;15177;50.844;4.412;2022-11-15T03:53:50;13.10;99.90
27797;DHT22;15177;50.844;4.412;2022-11-15T03:56:18;13.00;99.90
27797;DHT22;15177;50.844;4.412;2022-11-15T03:58:45;12.90;99.90
27797;DHT22;15177;50.844;4.412;2022-11-15T04:01:11;12.90;99.90
27797;DHT22;15177;50.844;4.412;2022-11-15T04:03:38;13.10;99.90
27797;DHT22;15177;50.844;4.412;2022-11-15T04:06:04;13.00;99.90
27797;DHT22;15177;50.844;4.412;2022-11-15T04:08:29;12.90;99.90
27797;DHT22;15177;50.844;4.412;2022-11-15T04:10:55;12.80;99.90
27797;DHT22;15177;50.844;4.412;2022-11-15T04:13:21;12.80;99.90
27797;DHT22;15177;50.844;4.412;2022-11-15T04:15:46;12.80;99.90
27797;DHT22;15177;50.844;4.412;2022-11-15T04:18:12;12.80;99.90
27797;DHT22;15177;50.844;4.412;2022-11-15T04:20:38;12.80;99.90
27797;DHT22;15177;50.844;4.412;2022-11-15T04:23:23;12.80;99.90
27797;DHT22;15177;50.844;4.412;2022-11-15T04:26:18;12.80;99.90
27797;DHT22;15177;50.844;4.412;2022-11-15T04:28:45;12.80;99.90
27797;DHT22;15177;50.844;4.412;2022-11-15T04:31:29;12.70;99.90
27797;DHT22;15177;50.844;4.412;2022-11-15T04:33:55;12.70;99.90
27797;DHT22;15177;50.844;4.412;2022-11-15T04:36:21;12.70;99.90
27797;DHT22;15177;50.844;4.412;2022-11-15T04:39:08;12.40;99.90
27797;DHT22;15177;50.844;4.412;2022-11-15T04:41:34;12.40;99.90
27797;DHT22;15177;50.844;4.412;2022-11-15T04:43:59;12.50;99.90
27797;DHT22;15177;50.844;4.412;2022-11-15T04:46:25;12.50;99.90
27797;DHT22;15177;50.844;4.412;2022-11-15T04:48:53;12.40;99.90
27797;DHT22;15177;50.844;4.412;2022-11-15T04:51:20;12.40;99.90
27797;DHT22;15177;50.844;4.412;2022-11-15T04:53:45;12.30;99.90
27797;DHT22;15177;50.844;4.412;2022-11-15T04:56:11;12.40;99.90
27797;DHT22;15177;50.844;4.412;2022-11-15T04:58:37;12.40;99.90
27797;DHT22;15177;50.844;4.412;2022-11-15T05:01:11;12.30;99.90
27797;DHT22;15177;50.844;4.412;2022-11-15T05:03:37;12.40;99.90
27797;DHT22;15177;50.844;4.412;2022-11-15T05:06:21;12.30;99.90
27797;DHT22;15177;50.844;4.412;2022-11-15T05:08:47;12.30;99.90
27797;DHT22;15177;50.844;4.412;2022-11-15T05:11:13;12.20;99.90
27797;DHT22;15177;50.844;4.412;2022-11-15T05:13:39;12.20;99.90
27797;DHT22;15177;50.844;4.412;2022-11-15T05:16:04;12.20;99.90
27797;DHT22;15177;50.844;4.412;2022-11-15T05:18:31;12.20;99.90
27797;DHT22;15177;50.844;4.412;2022-11-15T05:21:03;12.20;99.90
27797;DHT22;15177;50.844;4.412;2022-11-15T05:23:29;12.10;99.90
27797;DHT22;15177;50.844;4.412;2022-11-15T05:25:59;12.10;99.90
27797;DHT22;15177;50.844;4.412;2022-11-15T05:28:24;12.00;99.90
27797;DHT22;15177;50.844;4.412;2022-11-15T05:30:50;11.90;99.90
27797;DHT22;15177;50.844;4.412;2022-11-15T05:33:18;11.80;99.90
27797;DHT22;15177;50.844;4.412;2022-11-15T05:35:48;11.90;99.90
27797;DHT22;15177;50.844;4.412;2022-11-15T05:38:17;11.90;99.90
27797;DHT22;15177;50.844;4.412;2022-11-15T05:40:43;12.00;99.90
27797;DHT22;15177;50.844;4.412;2022-11-15T05:43:09;12.00;99.90
27797;DHT22;15177;50.844;4.412;2022-11-15T05:45:36;12.00;99.90
27797;DHT22;15177;50.844;4.412;2022-11-15T05:48:05;11.90;99.90
27797;DHT22;15177;50.844;4.412;2022-11-15T05:50:32;11.70;99.90
27797;DHT22;15177;50.844;4.412;2022-11-15T05:53:00;11.70;99.90
27797;DHT22;15177;50.844;4.412;2022-11-15T05:55:26;11.70;99.90
27797;DHT22;15177;50.844;4.412;2022-11-15T05:57:51;11.50;99.90
27797;DHT22;15177;50.844;4.412;2022-11-15T06:00:17;11.40;99.90
27797;DHT22;15177;50.844;4.412;2022-11-15T06:02:43;11.20;99.90
27797;DHT22;15177;50.844;4.412;2022-11-15T06:05:08;11.20;99.90
27797;DHT22;15177;50.844;4.412;2022-11-15T06:07:34;11.30;99.90
27797;DHT22;15177;50.844;4.412;2022-11-15T06:10:00;11.50;99.90
27797;DHT22;15177;50.844;4.412;2022-11-15T06:12:25;11.50;99.90
27797;DHT22;15177;50.844;4.412;2022-11-15T06:14:51;11.60;99.90
27797;DHT22;15177;50.844;4.412;2022-11-15T06:17:16;11.50;99.90
27797;DHT22;15177;50.844;4.412;2022-11-15T06:19:42;11.50;99.90
27797;DHT22;15177;50.844;4.412;2022-11-15T06:22:08;11.30;99.90
27797;DHT22;15177;50.844;4.412;2022-11-15T06:24:35;11.30;99.90
27797;DHT22;15177;50.844;4.412;2022-11-15T06:27:00;11.30;99.90
27797;DHT22;15177;50.844;4.412;2022-11-15T06:29:26;11.30;99.90
27797;DHT22;15177;50.844;4.412;2022-11-15T06:31:52;11.10;99.90
27797;DHT22;15177;50.844;4.412;2022-11-15T06:34:18;11.10;99.90
27797;DHT22;15177;50.844;4.412;2022-11-15T06:36:45;11.00;99.90
27797;DHT22;15177;50.844;4.412;2022-11-15T06:39:11;10.90;99.90
27797;DHT22;15177;50.844;4.412;2022-11-15T06:41:36;11.00;99.90
27797;DHT22;15177;50.844;4.412;2022-11-15T06:44:03;10.80;99.90
27797;DHT22;15177;50.844;4.412;2022-11-15T06:46:28;10.60;99.90
27797;DHT22;15177;50.844;4.412;2022-11-15T06:48:54;10.60;99.90
27797;DHT22;15177;50.844;4.412;2022-11-15T06:51:21;10.60;99.90
27797;DHT22;15177;50.844;4.412;2022-11-15T06:53:47;10.60;99.90
27797;DHT22;15177;50.844;4.412;2022-11-15T06:56:13;10.50;99.90
27797;DHT22;15177;50.844;4.412;2022-11-15T06:58:38;10.60;99.90
27797;DHT22;15177;50.844;4.412;2022-11-15T07:01:08;10.60;99.90
27797;DHT22;15177;50.844;4.412;2022-11-15T07:03:35;10.60;99.90
27797;DHT22;15177;50.844;4.412;2022-11-15T07:06:02;10.50;99.90
27797;DHT22;15177;50.844;4.412;2022-11-15T07:08:28;10.50;99.90
27797;DHT22;15177;50.844;4.412;2022-11-15T07:10:57;10.50;99.90
27797;DHT22;15177;50.844;4.412;2022-11-15T07:13:30;10.40;99.90
27797;DHT22;15177;50.844;4.412;2022-11-15T07:16:01;10.40;99.90
27797;DHT22;15177;50.844;4.412;2022-11-15T07:18:27;10.60;99.90
27797;DHT22;15177;50.844;4.412;2022-11-15T07:21:04;10.90;99.90
27797;DHT22;15177;50.844;4.412;2022-11-15T07:23:30;11.10;99.90
27797;DHT22;15177;50.844;4.412;2022-11-15T07:25:57;11.00;99.90
27797;DHT22;15177;50.844;4.412;2022-11-15T07:28:24;10.90;99.90
27797;DHT22;15177;50.844;4.412;2022-11-15T07:30:50;10.70;99.90
27797;DHT22;15177;50.844;4.412;2022-11-15T07:33:16;10.80;99.90
27797;DHT22;15177;50.844;4.412;2022-11-15T07:35:42;10.80;99.90
27797;DHT22;15177;50.844;4.412;2022-11-15T07:38:08;10.80;99.90
27797;DHT22;15177;50.844;4.412;2022-11-15T07:40:36;10.80;99.90
27797;DHT22;15177;50.844;4.412;2022-11-15T07:43:07;10.90;99.90
27797;DHT22;15177;50.844;4.412;2022-11-15T07:45:41;10.90;99.90
27797;DHT22;15177;50.844;4.412;2022-11-15T07:48:09;11.00;99.90
27797;DHT22;15177;50.844;4.412;2022-11-15T07:50:41;11.10;99.90
27797;DHT22;15177;50.844;4.412;2022-11-15T07:53:14;11.30;99.90
27797;DHT22;15177;50.844;4.412;2022-11-15T07:55:40;11.20;99.90
27797;DHT22;15177;50.844;4.412;2022-11-15T07:58:11;11.10;99.90
27797;DHT22;15177;50.844;4.412;2022-11-15T08:00:37;11.00;99.90
27797;DHT22;15177;50.844;4.412;2022-11-15T08:03:09;11.20;99.90
27797;DHT22;15177;50.844;4.412;2022-11-15T08:05:36;11.10;99.90
27797;DHT22;15177;50.844;4.412;2022-11-15T08:08:02;11.10;99.90
27797;DHT22;15177;50.844;4.412;2022-11-15T08:10:33;11.10;99.90
27797;DHT22;15177;50.844;4.412;2022-11-15T08:13:09;11.30;99.90
27797;DHT22;15177;50.844;4.412;2022-11-15T08:15:36;11.20;99.90
27797;DHT22;15177;50.844;4.412;2022-11-15T08:18:05;11.30;99.90
27797;DHT22;15177;50.844;4.412;2022-11-15T08:20:32;11.40;99.90
27797;DHT22;15177;50.844;4.412;2022-11-15T08:23:01;11.70;99.90
27797;DHT22;15177;50.844;4.412;2022-11-15T08:25:28;12.00;99.90
27797;DHT22;15177;50.844;4.412;2022-11-15T08:27:58;11.90;99.90
27797;DHT22;15177;50.844;4.412;2022-11-15T08:30:25;12.20;99.90
27797;DHT22;15177;50.844;4.412;2022-11-15T08:32:52;12.00;99.90
27797;DHT22;15177;50.844;4.412;2022-11-15T08:35:19;12.00;99.90
27797;DHT22;15177;50.844;4.412;2022-11-15T08:37:45;12.00;99.90
27797;DHT22;15177;50.844;4.412;2022-11-15T08:40:11;11.90;99.90
27797;DHT22;15177;50.844;4.412;2022-11-15T08:42:37;11.90;99.90
27797;DHT22;15177;50.844;4.412;2022-11-15T08:45:03;11.70;99.90
27797;DHT22;15177;50.844;4.412;2022-11-15T08:47:30;11.80;99.90
27797;DHT22;15177;50.844;4.412;2022-11-15T08:49:56;12.00;99.90
27797;DHT22;15177;50.844;4.412;2022-11-15T08:52:24;12.20;99.90
27797;DHT22;15177;50.844;4.412;2022-11-15T08:54:50;11.90;99.90
27797;DHT22;15177;50.844;4.412;2022-11-15T08:57:16;12.00;99.90
27797;DHT22;15177;50.844;4.412;2022-11-15T08:59:43;12.10;99.90
27797;DHT22;15177;50.844;4.412;2022-11-15T09:02:13;12.00;99.90
27797;DHT22;15177;50.844;4.412;2022-11-15T09:04:42;12.00;99.90
27797;DHT22;15177;50.844;4.412;2022-11-15T09:07:10;12.10;99.90
27797;DHT22;15177;50.844;4.412;2022-11-15T09:09:36;12.20;99.90
27797;DHT22;15177;50.844;4.412;2022-11-15T09:12:03;12.50;99.90
27797;DHT22;15177;50.844;4.412;2022-11-15T09:14:30;12.50;99.90
27797;DHT22;15177;50.844;4.412;2022-11-15T09:17:00;12.60;99.90
27797;DHT22;15177;50.844;4.412;2022-11-15T09:19:26;12.60;99.90
27797;DHT22;15177;50.844;4.412;2022-11-15T09:21:52;12.70;99.90
27797;DHT22;15177;50.844;4.412;2022-11-15T09:24:18;12.70;99.90
27797;DHT22;15177;50.844;4.412;2022-11-15T09:26:44;12.60;99.90
27797;DHT22;15177;50.844;4.412;2022-11-15T09:29:10;12.60;99.90
27797;DHT22;15177;50.844;4.412;2022-11-15T09:31:35;12.50;99.90
27797;DHT22;15177;50.844;4.412;2022-11-15T09:34:01;12.50;99.90
27797;DHT22;15177;50.844;4.412;2022-11-15T09:36:27;12.50;99.90
27797;DHT22;15177;50.844;4.412;2022-11-15T09:38:52;12.60;99.90
27797;DHT22;15177;50.844;4.412;2022-11-15T09:46:59;13.60;99.90
27797;DHT22;15177;50.844;4.412;2022-11-15T09:49:29;14.20;99.90
27797;DHT22;15177;50.844;4.412;2022-11-15T09:51:55;14.60;99.90
27797;DHT22;15177;50.844;4.412;2022-11-15T09:54:38;15.30;99.90
27797;DHT22;15177;50.844;4.412;2022-11-15T10:02:46;15.70;99.90
27797;DHT22;15177;50.844;4.412;2022-11-15T10:05:17;15.80;99.90
27797;DHT22;15177;50.844;4.412;2022-11-15T10:08:40;15.30;99.90
27797;DHT22;15177;50.844;4.412;2022-11-15T10:10:46;15.50;99.90
27797;DHT22;15177;50.844;4.412;2022-11-15T10:13:20;15.20;99.90
27797;DHT22;15177;50.844;4.412;2022-11-15T10:15:48;15.50;99.90
27797;DHT22;15177;50.844;4.412;2022-11-15T10:18:27;15.20;99.90
27797;DHT22;15177;50.844;4.412;2022-11-15T10:21:00;15.20;99.90
27797;DHT22;15177;50.844;4.412;2022-11-15T10:23:29;14.80;99.90
27797;DHT22;15177;50.844;4.412;2022-11-15T10:25:58;14.20;99.90
27797;DHT22;15177;50.844;4.412;2022-11-15T10:28:30;14.00;99.90
27797;DHT22;15177;50.844;4.412;2022-11-15T10:30:58;13.90;99.90
27797;DHT22;15177;50.844;4.412;2022-11-15T10:36:24;13.80;99.90
27797;DHT22;15177;50.844;4.412;2022-11-15T10:38:56;13.80;99.90
27797;DHT22;15177;50.844;4.412;2022-11-15T10:47:20;13.70;99.90
27797;DHT22;15177;50.844;4.412;2022-11-15T10:50:00;13.60;99.90
27797;DHT22;15177;50.844;4.412;2022-11-15T10:52:27;13.10;99.90
27797;DHT22;15177;50.844;4.412;2022-11-15T10:54:57;13.30;99.90
27797;DHT22;15177;50.844;4.412;2022-11-15T10:57:29;13.40;99.90
27797;DHT22;15177;50.844;4.412;2022-11-15T11:00:02;13.60;99.90
27797;DHT22;15177;50.844;4.412;2022-11-15T11:02:38;13.50;99.90
27797;DHT22;15177;50.844;4.412;2022-11-15T11:05:27;13.60;99.90
27797;DHT22;15177;50.844;4.412;2022-11-15T11:08:00;13.60;99.90
27797;DHT22;15177;50.844;4.412;2022-11-15T11:10:27;13.20;99.90
27797;DHT22;15177;50.844;4.412;2022-11-15T11:12:53;13.50;99.90
27797;DHT22;15177;50.844;4.412;2022-11-15T11:15:19;13.60;99.90
27797;DHT22;15177;50.844;4.412;2022-11-15T11:17:56;13.60;99.90
27797;DHT22;15177;50.844;4.412;2022-11-15T11:20:33;13.80;99.90
27797;DHT22;15177;50.844;4.412;2022-11-15T11:37:54;14.60;99.90
27797;DHT22;15177;50.844;4.412;2022-11-15T11:48:48;14.30;99.90
27797;DHT22;15177;50.844;4.412;2022-11-15T11:51:22;14.60;99.90
27797;DHT22;15177;50.844;4.412;2022-11-15T11:56:40;14.40;99.90
27797;DHT22;15177;50.844;4.412;2022-11-15T12:02:09;14.10;99.90
27797;DHT22;15177;50.844;4.412;2022-11-15T12:04:42;14.30;99.90
27797;DHT22;15177;50.844;4.412;2022-11-15T12:07:23;14.40;99.90
27797;DHT22;15177;50.844;4.412;2022-11-15T12:15:19;14.40;99.90
27797;DHT22;15177;50.844;4.412;2022-11-15T12:17:46;14.30;99.90
27797;DHT22;15177;50.844;4.412;2022-11-15T12:20:23;14.40;99.90
27797;DHT22;15177;50.844;4.412;2022-11-15T12:23:23;14.30;99.90
27797;DHT22;15177;50.844;4.412;2022-11-15T12:28:35;14.00;99.90
27797;DHT22;15177;50.844;4.412;2022-11-15T12:33:43;14.10;99.90
27797;DHT22;15177;50.844;4.412;2022-11-15T12:36:37;14.10;99.90
27797;DHT22;15177;50.844;4.412;2022-11-15T12:39:09;13.90;99.90
27797;DHT22;15177;50.844;4.412;2022-11-15T12:41:37;13.80;99.90
27797;DHT22;15177;50.844;4.412;2022-11-15T12:44:05;13.90;99.90
27797;DHT22;15177;50.844;4.412;2022-11-15T13:00:01;13.90;99.90
27797;DHT22;15177;50.844;4.412;2022-11-15T13:02:39;14.00;99.90
27797;DHT22;15177;50.844;4.412;2022-11-15T13:17:52;14.30;99.90
27797;DHT22;15177;50.844;4.412;2022-11-15T13:20:28;14.60;99.90
27797;DHT22;15177;50.844;4.412;2022-11-15T13:23:11;14.60;99.90
27797;DHT22;15177;50.844;4.412;2022-11-15T13:31:13;14.20;99.90
27797;DHT22;15177;50.844;4.412;2022-11-15T13:33:46;14.10;99.90
27797;DHT22;15177;50.844;4.412;2022-11-15T13:36:30;14.20;99.90
27797;DHT22;15177;50.844;4.412;2022-11-15T13:39:00;14.10;99.90
27797;DHT22;15177;50.844;4.412;2022-11-15T13:41:29;13.90;99.90
27797;DHT22;15177;50.844;4.412;2022-11-15T13:43:56;14.00;99.90
27797;DHT22;15177;50.844;4.412;2022-11-15T13:46:26;14.10;99.90
27797;DHT22;15177;50.844;4.412;2022-11-15T13:49:11;14.10;99.90
27797;DHT22;15177;50.844;4.412;2022-11-15T13:56:45;14.20;99.90
27797;DHT22;15177;50.844;4.412;2022-11-15T14:01:47;14.30;99.90
27797;DHT22;15177;50.844;4.412;2022-11-15T14:04:19;14.20;99.90
27797;DHT22;15177;50.844;4.412;2022-11-15T14:06:55;14.30;99.90
27797;DHT22;15177;50.844;4.412;2022-11-15T14:12:00;14.20;99.90
27797;DHT22;15177;50.844;4.412;2022-11-15T14:14:28;14.30;99.90
27797;DHT22;15177;50.844;4.412;2022-11-15T14:16:56;14.20;99.90
27797;DHT22;15177;50.844;4.412;2022-11-15T14:22:20;14.10;99.90
27797;DHT22;15177;50.844;4.412;2022-11-15T14:25:04;14.30;99.90
27797;DHT22;15177;50.844;4.412;2022-11-15T14:27:31;14.40;99.90
27797;DHT22;15177;50.844;4.412;2022-11-15T14:29:57;14.30;99.90
27797;DHT22;15177;50.844;4.412;2022-11-15T14:32:27;14.20;99.90
27797;DHT22;15177;50.844;4.412;2022-11-15T14:35:01;14.20;99.90
27797;DHT22;15177;50.844;4.412;2022-11-15T14:37:32;14.20;99.90
27797;DHT22;15177;50.844;4.412;2022-11-15T14:40:00;14.20;99.90
27797;DHT22;15177;50.844;4.412;2022-11-15T14:42:27;14.10;99.90
27797;DHT22;15177;50.844;4.412;2022-11-15T14:44:53;13.90;99.90
27797;DHT22;15177;50.844;4.412;2022-11-15T14:47:19;13.70;99.90
27797;DHT22;15177;50.844;4.412;2022-11-15T14:49:44;13.60;99.90
27797;DHT22;15177;50.844;4.412;2022-11-15T14:52:30;13.70;99.90
27797;DHT22;15177;50.844;4.412;2022-11-15T14:55:04;13.70;99.90
27797;DHT22;15177;50.844;4.412;2022-11-15T14:57:35;14.00;99.90
27797;DHT22;15177;50.844;4.412;2022-11-15T15:00:01;13.90;99.90
27797;DHT22;15177;50.844;4.412;2022-11-15T15:02:28;13.90;99.90
27797;DHT22;15177;50.844;4.412;2022-11-15T15:04:54;13.90;99.90
27797;DHT22;15177;50.844;4.412;2022-11-15T15:07:20;13.80;99.90
27797;DHT22;15177;50.844;4.412;2022-11-15T15:09:46;14.00;99.90
27797;DHT22;15177;50.844;4.412;2022-11-15T15:12:16;13.80;99.90
27797;DHT22;15177;50.844;4.412;2022-11-15T15:14:45;13.80;99.90
27797;DHT22;15177;50.844;4.412;2022-11-15T15:17:11;14.00;99.90
27797;DHT22;15177;50.844;4.412;2022-11-15T15:19:37;13.90;99.90
27797;DHT22;15177;50.844;4.412;2022-11-15T15:22:03;13.70;99.90
27797;DHT22;15177;50.844;4.412;2022-11-15T15:24:29;13.80;99.90
27797;DHT22;15177;50.844;4.412;2022-11-15T15:26:55;13.80;99.90
27797;DHT22;15177;50.844;4.412;2022-11-15T15:29:22;13.70;99.90
27797;DHT22;15177;50.844;4.412;2022-11-15T15:31:47;13.60;99.90
27797;DHT22;15177;50.844;4.412;2022-11-15T15:34:15;13.50;99.90
27797;DHT22;15177;50.844;4.412;2022-11-15T15:36:41;13.50;99.90
27797;DHT22;15177;50.844;4.412;2022-11-15T15:39:10;13.70;99.90
27797;DHT22;15177;50.844;4.412;2022-11-15T15:41:37;13.50;99.90
27797;DHT22;15177;50.844;4.412;2022-11-15T15:44:02;13.50;99.90
27797;DHT22;15177;50.844;4.412;2022-11-15T15:46:28;13.40;99.90
27797;DHT22;15177;50.844;4.412;2022-11-15T15:48:56;13.40;99.90
27797;DHT22;15177;50.844;4.412;2022-11-15T15:51:22;13.40;99.90
27797;DHT22;15177;50.844;4.412;2022-11-15T15:53:48;13.30;99.90
27797;DHT22;15177;50.844;4.412;2022-11-15T15:56:14;13.20;99.90
27797;DHT22;15177;50.844;4.412;2022-11-15T15:58:39;13.20;99.90
27797;DHT22;15177;50.844;4.412;2022-11-15T16:01:05;13.30;99.90
27797;DHT22;15177;50.844;4.412;2022-11-15T16:03:31;13.30;99.90
27797;DHT22;15177;50.844;4.412;2022-11-15T16:05:56;13.30;99.90
27797;DHT22;15177;50.844;4.412;2022-11-15T16:08:24;13.40;99.90
27797;DHT22;15177;50.844;4.412;2022-11-15T16:10:50;13.40;99.90
27797;DHT22;15177;50.844;4.412;2022-11-15T16:13:16;13.10;99.90
27797;DHT22;15177;50.844;4.412;2022-11-15T16:15:43;13.00;99.90
27797;DHT22;15177;50.844;4.412;2022-11-15T16:18:12;13.10;99.90
27797;DHT22;15177;50.844;4.412;2022-11-15T16:20:40;13.30;99.90
27797;DHT22;15177;50.844;4.412;2022-11-15T16:23:09;13.10;99.90
27797;DHT22;15177;50.844;4.412;2022-11-15T16:25:50;12.90;99.90
27797;DHT22;15177;50.844;4.412;2022-11-15T16:28:28;13.00;99.90
27797;DHT22;15177;50.844;4.412;2022-11-15T16:33:26;12.90;99.90
27797;DHT22;15177;50.844;4.412;2022-11-15T16:35:51;12.90;99.90
27797;DHT22;15177;50.844;4.412;2022-11-15T16:38:17;12.90;99.90
27797;DHT22;15177;50.844;4.412;2022-11-15T16:40:43;13.00;99.90
27797;DHT22;15177;50.844;4.412;2022-11-15T16:43:09;13.10;99.90
27797;DHT22;15177;50.844;4.412;2022-11-15T16:45:35;13.20;99.90
27797;DHT22;15177;50.844;4.412;2022-11-15T16:48:01;13.10;99.90
27797;DHT22;15177;50.844;4.412;2022-11-15T16:50:29;13.00;99.90
27797;DHT22;15177;50.844;4.412;2022-11-15T16:52:58;12.90;99.90
27797;DHT22;15177;50.844;4.412;2022-11-15T16:55:28;13.10;99.90
27797;DHT22;15177;50.844;4.412;2022-11-15T16:57:54;13.10;99.90
27797;DHT22;15177;50.844;4.412;2022-11-15T17:00:23;13.10;99.90
27797;DHT22;15177;50.844;4.412;2022-11-15T17:02:50;13.10;99.90
27797;DHT22;15177;50.844;4.412;2022-11-15T17:05:18;13.20;99.90
27797;DHT22;15177;50.844;4.412;2022-11-15T17:07:49;13.10;99.90
27797;DHT22;15177;50.844;4.412;2022-11-15T17:10:18;12.90;99.90
27797;DHT22;15177;50.844;4.412;2022-11-15T17:12:44;13.00;99.90
27797;DHT22;15177;50.844;4.412;2022-11-15T17:15:11;12.90;99.90
27797;DHT22;15177;50.844;4.412;2022-11-15T17:17:38;12.90;99.90
27797;DHT22;15177;50.844;4.412;2022-11-15T17:20:04;12.90;99.90
27797;DHT22;15177;50.844;4.412;2022-11-15T17:22:35;12.90;99.90
27797;DHT22;15177;50.844;4.412;2022-11-15T17:25:02;12.80;99.90
27797;DHT22;15177;50.844;4.412;2022-11-15T17:27:27;12.90;99.90
27797;DHT22;15177;50.844;4.412;2022-11-15T17:29:53;12.90;99.90
27797;DHT22;15177;50.844;4.412;2022-11-15T17:32:19;13.00;99.90
27797;DHT22;15177;50.844;4.412;2022-11-15T17:34:44;12.90;99.90
27797;DHT22;15177;50.844;4.412;2022-11-15T17:37:10;12.90;99.90
27797;DHT22;15177;50.844;4.412;2022-11-15T17:39:36;13.00;99.90
27797;DHT22;15177;50.844;4.412;2022-11-15T17:42:01;13.00;99.90
27797;DHT22;15177;50.844;4.412;2022-11-15T17:44:27;12.90;99.90
27797;DHT22;15177;50.844;4.412;2022-11-15T17:46:52;13.00;99.90
27797;DHT22;15177;50.844;4.412;2022-11-15T17:49:18;13.20;99.90
27797;DHT22;15177;50.844;4.412;2022-11-15T17:51:44;13.20;99.90
27797;DHT22;15177;50.844;4.412;2022-11-15T17:54:10;13.10;99.90
27797;DHT22;15177;50.844;4.412;2022-11-15T17:56:38;13.00;99.90
27797;DHT22;15177;50.844;4.412;2022-11-15T17:59:07;13.20;99.90
27797;DHT22;15177;50.844;4.412;2022-11-15T18:01:35;13.10;99.90